Time;durP1;ratioP1;P1;durP2;ratioP2;P2;SDS_P1;SDS_P2;PMS_P1;PMS_P2;Temp;Humidity;BMP_temperature;BMP_pressure;BME280_temperature;BME280_humidity;BME280_pressure;Samples;Min_cycle;Max_cycle;Signal;HPM_P1;HPM_P2
2022/12/26 00:01:20;;;;;;;4.57;3.40;;;;;;;;;;4934240;29;20059;-61
2022/12/26 00:03:47;;;;;;;6.35;3.40;;;;;;;;;;4934772;29;20496;-61
2022/12/26 00:06:14;;;;;;;3.58;3.20;;;;;;;;;;4933537;29;20496;-60
2022/12/26 00:08:41;;;;;;;4.82;3.55;;;;;;;;;;4934385;29;20052;-61
2022/12/26 00:11:08;;;;;;;4.85;3.28;;;;;;;;;;4934108;29;20066;-61
2022/12/26 00:13:34;;;;;;;3.80;3.42;;;;;;;;;;4917235;29;20128;-61
2022/12/26 00:16:10;;;;;;;4.45;3.13;;;;;;;;;;4933951;29;20102;-60
2022/12/26 00:18:37;;;;;;;4.70;3.20;;;;;;;;;;4934163;29;20044;-61
2022/12/26 00:21:03;;;;;;;5.55;3.20;;;;;;;;;;4934030;29;20489;-61
2022/12/26 00:23:30;;;;;;;3.55;2.95;;;;;;;;;;4917031;29;20441;-60
2022/12/26 00:26:01;;;;;;;4.93;3.13;;;;;;;;;;4916404;29;20048;-60
2022/12/26 00:28:27;;;;;;;4.00;3.55;;;;;;;;;;4933923;29;20116;-61
2022/12/26 00:30:53;;;;;;;4.15;3.15;;;;;;;;;;4936891;29;20477;-61
2022/12/26 00:33:20;;;;;;;4.82;3.22;;;;;;;;;;4937103;29;20419;-61
2022/12/26 00:35:46;;;;;;;5.78;3.58;;;;;;;;;;4920175;29;20408;-62
2022/12/26 00:38:13;;;;;;;4.55;3.28;;;;;;;;;;4937661;29;20048;-61
2022/12/26 00:40:42;;;;;;;4.38;2.92;;;;;;;;;;4937655;29;20054;-61
2022/12/26 00:43:08;;;;;;;4.95;3.42;;;;;;;;;;4937752;29;20397;-61
2022/12/26 00:45:35;;;;;;;7.07;3.35;;;;;;;;;;4936804;29;20127;-61
2022/12/26 00:48:02;;;;;;;3.00;2.70;;;;;;;;;;4937404;29;20412;-61
2022/12/26 00:50:28;;;;;;;5.57;3.10;;;;;;;;;;4937302;29;20040;-61
2022/12/26 00:53:00;;;;;;;5.72;3.08;;;;;;;;;;4937412;29;20039;-61
2022/12/26 00:55:26;;;;;;;3.85;3.35;;;;;;;;;;4936897;29;20046;-60
2022/12/26 00:57:53;;;;;;;4.47;2.78;;;;;;;;;;4937222;29;20464;-61
2022/12/26 01:00:19;;;;;;;4.30;3.15;;;;;;;;;;4937118;29;20169;-61
2022/12/26 01:02:46;;;;;;;3.78;2.80;;;;;;;;;;4904229;29;20048;-61
2022/12/26 01:05:12;;;;;;;5.47;3.05;;;;;;;;;;4936605;29;20409;-61
2022/12/26 01:07:39;;;;;;;5.97;3.05;;;;;;;;;;4920078;29;20548;-61
2022/12/26 01:10:26;;;;;;;4.32;3.08;;;;;;;;;;4937267;29;20468;-61
2022/12/26 01:12:52;;;;;;;4.07;2.20;;;;;;;;;;4920013;29;20058;-61
2022/12/26 01:15:19;;;;;;;5.20;2.65;;;;;;;;;;4919121;29;20055;-61
2022/12/26 01:17:45;;;;;;;5.15;2.85;;;;;;;;;;4936869;29;20052;-62
2022/12/26 01:20:12;;;;;;;4.63;2.72;;;;;;;;;;4936830;29;20051;-62
2022/12/26 01:22:38;;;;;;;5.03;2.88;;;;;;;;;;4919607;29;20108;-61
2022/12/26 01:25:05;;;;;;;6.93;3.00;;;;;;;;;;4918892;29;20051;-61
2022/12/26 01:27:31;;;;;;;6.05;3.08;;;;;;;;;;4919494;29;20111;-61
2022/12/26 01:29:57;;;;;;;4.68;2.80;;;;;;;;;;4936544;29;20050;-61
2022/12/26 01:32:24;;;;;;;3.45;2.25;;;;;;;;;;4936512;29;20489;-61
2022/12/26 01:34:54;;;;;;;3.40;2.95;;;;;;;;;;4937028;29;20454;-61
2022/12/26 01:37:22;;;;;;;4.68;3.08;;;;;;;;;;4936593;29;20515;-61
2022/12/26 01:39:49;;;;;;;5.30;3.13;;;;;;;;;;4936819;29;20044;-61
2022/12/26 01:42:16;;;;;;;3.92;2.92;;;;;;;;;;4935852;29;20057;-61
2022/12/26 01:44:58;;;;;;;5.45;2.53;;;;;;;;;;4936722;29;20576;-61
2022/12/26 01:47:27;;;;;;;4.78;2.92;;;;;;;;;;4936139;29;20051;-61
2022/12/26 01:49:54;;;;;;;6.72;3.08;;;;;;;;;;4936503;29;20048;-61
2022/12/26 01:52:43;;;;;;;3.75;2.92;;;;;;;;;;4935964;29;20047;-61
2022/12/26 01:55:10;;;;;;;3.95;2.40;;;;;;;;;;4935595;29;20051;-61
2022/12/26 01:57:39;;;;;;;5.10;2.30;;;;;;;;;;4936532;29;20095;-61
2022/12/26 02:00:06;;;;;;;3.72;2.55;;;;;;;;;;4918847;29;20056;-61
2022/12/26 02:05:35;;;;;;;3.05;2.60;;;;;;;;;;4935519;29;20350;-62
2022/12/26 02:08:14;;;;;;;3.85;2.65;;;;;;;;;;4936321;29;20101;-61
2022/12/26 02:10:51;;;;;;;5.30;2.80;;;;;;;;;;4936054;29;20044;-61
2022/12/26 02:13:18;;;;;;;6.03;2.83;;;;;;;;;;4919159;29;20051;-61
2022/12/26 02:15:45;;;;;;;3.47;2.50;;;;;;;;;;4935252;29;20048;-61
2022/12/26 02:18:11;;;;;;;3.55;2.78;;;;;;;;;;4935303;29;20055;-61
2022/12/26 02:20:56;;;;;;;3.33;2.28;;;;;;;;;;4935484;29;20056;-61
2022/12/26 02:23:38;;;;;;;5.60;2.88;;;;;;;;;;4918577;29;20051;-61
2022/12/26 02:26:14;;;;;;;5.15;2.80;;;;;;;;;;4917888;29;20071;-61
2022/12/26 02:28:56;;;;;;;4.85;2.72;;;;;;;;;;4935560;29;20111;-61
2022/12/26 02:31:30;;;;;;;6.28;2.65;;;;;;;;;;4935568;29;20059;-61
2022/12/26 02:34:02;;;;;;;4.80;2.30;;;;;;;;;;4935415;29;20110;-61
2022/12/26 02:36:35;;;;;;;6.78;2.80;;;;;;;;;;4934942;29;20066;-61
2022/12/26 02:39:20;;;;;;;5.43;2.72;;;;;;;;;;4935117;29;20055;-61
2022/12/26 02:42:06;;;;;;;4.07;2.88;;;;;;;;;;4935178;29;20058;-61
2022/12/26 02:47:46;;;;;;;6.50;2.47;;;;;;;;;;4934955;29;20047;-61
2022/12/26 03:13:12;;;;;;;3.05;2.42;;;;;;;;;;4934760;29;20040;-60
2022/12/26 03:18:28;;;;;;;5.03;3.00;;;;;;;;;;4934844;29;20508;-62
2022/12/26 03:21:17;;;;;;;4.25;3.17;;;;;;;;;;4934695;29;20173;-61
2022/12/26 03:23:45;;;;;;;4.05;2.45;;;;;;;;;;4934662;29;20461;-61
2022/12/26 03:31:44;;;;;;;6.03;2.67;;;;;;;;;;4934969;29;20048;-61
2022/12/26 03:34:17;;;;;;;3.63;2.22;;;;;;;;;;4934914;29;20103;-61
2022/12/26 03:36:43;;;;;;;4.32;2.80;;;;;;;;;;4934127;29;20052;-60
2022/12/26 04:19:22;;;;;;;3.72;2.08;;;;;;;;;;4934507;29;20055;-60
2022/12/26 04:19:59;;;;;;;3.33;2.50;;;;;;;;;;4938507;29;20107;-61
2022/12/26 04:45:05;;;;;;;4.20;2.58;;;;;;;;;;4948874;23;20044;-60
2022/12/26 04:47:32;;;;;;;3.72;2.55;;;;;;;;;;4937484;29;20055;-61
2022/12/26 04:50:12;;;;;;;3.58;2.65;;;;;;;;;;4937889;29;20060;-61
2022/12/26 04:52:57;;;;;;;6.38;2.65;;;;;;;;;;4937658;29;20214;-61
2022/12/26 04:55:25;;;;;;;3.67;2.38;;;;;;;;;;4919793;29;20075;-60
2022/12/26 04:57:52;;;;;;;4.03;2.72;;;;;;;;;;4937274;29;20047;-61
2022/12/26 05:11:26;;;;;;;2.45;2.25;;;;;;;;;;4934426;29;20052;-59
2022/12/26 05:13:53;;;;;;;2.88;2.38;;;;;;;;;;4901110;29;20120;-60
2022/12/26 05:30:08;;;;;;;4.05;2.35;;;;;;;;;;4917768;29;20048;-61
2022/12/26 05:35:20;;;;;;;4.85;3.15;;;;;;;;;;4917101;29;20048;-61
2022/12/26 05:37:46;;;;;;;2.95;2.60;;;;;;;;;;4885131;29;20052;-60
2022/12/26 05:40:13;;;;;;;6.53;2.97;;;;;;;;;;4917504;29;20556;-61
2022/12/26 05:42:39;;;;;;;4.68;2.88;;;;;;;;;;4917440;29;20099;-59
2022/12/26 05:45:05;;;;;;;4.13;2.72;;;;;;;;;;4916815;29;20052;-60
2022/12/26 05:47:32;;;;;;;6.25;3.15;;;;;;;;;;4917160;29;20040;-60
2022/12/26 05:49:58;;;;;;;4.57;2.80;;;;;;;;;;4900220;29;20405;-61
2022/12/26 05:52:25;;;;;;;4.60;2.95;;;;;;;;;;4900171;29;20048;-60
2022/12/26 05:54:51;;;;;;;3.63;2.58;;;;;;;;;;4917511;29;20060;-60
2022/12/26 05:57:17;;;;;;;3.30;2.20;;;;;;;;;;4916722;29;20075;-60
2022/12/26 05:59:44;;;;;;;4.43;2.92;;;;;;;;;;4900206;29;20059;-60
2022/12/26 06:02:10;;;;;;;4.72;3.10;;;;;;;;;;4916997;29;20036;-61
2022/12/26 06:04:37;;;;;;;3.70;2.67;;;;;;;;;;4885025;29;20048;-61
2022/12/26 06:07:03;;;;;;;5.28;3.70;;;;;;;;;;4916600;29;20040;-60
2022/12/26 06:09:30;;;;;;;3.92;2.88;;;;;;;;;;4900255;29;20099;-60
2022/12/26 06:11:56;;;;;;;6.00;3.53;;;;;;;;;;4900095;29;20040;-60
2022/12/26 06:14:23;;;;;;;4.25;3.40;;;;;;;;;;4916785;29;20048;-60
2022/12/26 06:16:49;;;;;;;4.97;3.60;;;;;;;;;;4916356;29;20048;-61
2022/12/26 06:19:15;;;;;;;3.75;2.90;;;;;;;;;;4917068;29;20036;-60
2022/12/26 06:21:42;;;;;;;6.20;3.55;;;;;;;;;;4916810;29;20048;-59
2022/12/26 06:24:08;;;;;;;3.42;2.60;;;;;;;;;;4916944;29;20058;-60
2022/12/26 06:26:35;;;;;;;4.45;2.67;;;;;;;;;;4916518;29;20047;-61
2022/12/26 06:29:01;;;;;;;9.00;3.60;;;;;;;;;;4916373;29;20052;-60
2022/12/26 06:31:28;;;;;;;3.65;2.80;;;;;;;;;;4916585;29;20409;-61
2022/12/26 06:33:57;;;;;;;4.78;3.00;;;;;;;;;;4916924;29;20040;-61
2022/12/26 06:36:24;;;;;;;5.63;3.05;;;;;;;;;;4899403;29;20120;-60
2022/12/26 06:38:51;;;;;;;4.53;3.13;;;;;;;;;;4916457;29;20469;-61
2022/12/26 06:41:18;;;;;;;4.68;3.38;;;;;;;;;;4916380;29;20572;-61
2022/12/26 06:43:45;;;;;;;4.50;3.28;;;;;;;;;;4899444;29;20055;-60
2022/12/26 06:46:12;;;;;;;5.05;3.30;;;;;;;;;;4898941;29;20043;-60
2022/12/26 06:48:39;;;;;;;3.78;3.05;;;;;;;;;;4916168;29;20048;-61
2022/12/26 06:51:08;;;;;;;4.32;3.42;;;;;;;;;;4916686;29;20040;-60
2022/12/26 06:53:34;;;;;;;5.70;3.25;;;;;;;;;;4899370;29;20049;-61
2022/12/26 06:56:08;;;;;;;5.45;3.55;;;;;;;;;;4915871;29;20059;-61
2022/12/26 06:58:34;;;;;;;;;;;;;;;;;;4899753;29;20064;-62
2022/12/26 07:01:08;;;;;;;5.63;3.13;;;;;;;;;;4899214;29;19927;-62
2022/12/26 07:03:35;;;;;;;5.22;3.35;;;;;;;;;;4916243;29;20424;-61
2022/12/26 07:06:06;;;;;;;7.78;3.65;;;;;;;;;;4915805;29;20040;-60
2022/12/26 07:08:33;;;;;;;4.75;3.42;;;;;;;;;;4915916;29;20044;-61
2022/12/26 07:10:59;;;;;;;7.25;3.03;;;;;;;;;;4916065;29;20036;-61
2022/12/26 07:13:26;;;;;;;7.25;3.00;;;;;;;;;;4915861;29;20054;-61
2022/12/26 07:15:53;;;;;;;6.47;3.30;;;;;;;;;;4898826;29;20448;-61
2022/12/26 07:18:19;;;;;;;4.40;2.80;;;;;;;;;;4916033;29;20493;-62
2022/12/26 07:20:46;;;;;;;4.45;2.80;;;;;;;;;;4915816;29;20079;-60
2022/12/26 07:23:13;;;;;;;5.57;3.15;;;;;;;;;;4915845;29;20056;-60
2022/12/26 07:25:39;;;;;;;3.30;2.53;;;;;;;;;;4915247;29;20547;-59
2022/12/26 07:28:05;;;;;;;3.50;2.80;;;;;;;;;;4915868;29;20044;-62
2022/12/26 07:30:32;;;;;;;4.43;2.80;;;;;;;;;;4916039;29;20044;-60
2022/12/26 07:32:58;;;;;;;5.22;2.95;;;;;;;;;;4916010;29;20422;-60
2022/12/26 07:35:25;;;;;;;4.55;2.92;;;;;;;;;;4915559;29;20040;-61
2022/12/26 07:37:51;;;;;;;4.20;2.92;;;;;;;;;;4916093;29;20052;-61
2022/12/26 07:40:18;;;;;;;3.65;2.78;;;;;;;;;;4918048;29;20052;-61
2022/12/26 07:42:44;;;;;;;5.28;2.70;;;;;;;;;;4919595;29;20044;-61
2022/12/26 07:45:11;;;;;;;4.65;2.88;;;;;;;;;;4918999;29;20123;-60
2022/12/26 07:47:37;;;;;;;4.35;2.50;;;;;;;;;;4919300;29;20091;-60
2022/12/26 07:50:03;;;;;;;4.85;2.92;;;;;;;;;;4919412;29;20048;-59
2022/12/26 07:52:30;;;;;;;3.08;2.53;;;;;;;;;;4919298;29;20453;-60
2022/12/26 07:54:56;;;;;;;3.35;2.20;;;;;;;;;;4919138;29;20051;-61
2022/12/26 07:57:23;;;;;;;3.42;2.38;;;;;;;;;;4919051;29;20493;-61
2022/12/26 08:00:10;;;;;;;3.80;2.30;;;;;;;;;;4919076;29;20130;-60
2022/12/26 08:02:39;;;;;;;2.90;2.25;;;;;;;;;;4919227;29;20044;-59
2022/12/26 08:05:06;;;;;;;3.20;2.05;;;;;;;;;;4918597;29;20048;-60
2022/12/26 08:07:33;;;;;;;3.03;2.13;;;;;;;;;;4901974;29;20135;-60
2022/12/26 08:10:00;;;;;;;2.67;1.92;;;;;;;;;;4919252;29;20064;-61
2022/12/26 08:12:27;;;;;;;8.55;3.95;;;;;;;;;;4918954;29;20127;-60
2022/12/26 08:14:53;;;;;;;4.80;3.20;;;;;;;;;;4918965;29;20075;-60
2022/12/26 08:17:20;;;;;;;3.42;2.30;;;;;;;;;;4918448;29;20535;-60
2022/12/26 08:19:46;;;;;;;5.97;2.53;;;;;;;;;;4918887;29;20048;-60
2022/12/26 08:22:13;;;;;;;2.53;1.80;;;;;;;;;;4918753;29;20052;-60
2022/12/26 08:24:39;;;;;;;4.97;2.47;;;;;;;;;;4918830;29;20047;-60
2022/12/26 08:27:05;;;;;;;4.53;2.45;;;;;;;;;;4918465;29;20421;-60
2022/12/26 08:29:32;;;;;;;2.15;1.65;;;;;;;;;;4918805;29;20040;-61
2022/12/26 08:31:58;;;;;;;2.80;2.00;;;;;;;;;;4918539;29;20520;-61
2022/12/26 08:34:30;;;;;;;4.43;1.90;;;;;;;;;;4918531;29;20040;-60
2022/12/26 08:36:56;;;;;;;4.40;2.88;;;;;;;;;;4918229;29;20095;-61
2022/12/26 08:39:22;;;;;;;4.03;2.40;;;;;;;;;;4918815;29;20033;-61
2022/12/26 08:41:49;;;;;;;4.57;2.35;;;;;;;;;;4918487;29;20040;-61
2022/12/26 08:44:16;;;;;;;4.70;2.70;;;;;;;;;;4901534;29;20072;-59
2022/12/26 08:46:53;;;;;;;3.17;1.95;;;;;;;;;;4917728;29;20040;-61
2022/12/26 08:49:19;;;;;;;3.58;2.50;;;;;;;;;;4918432;29;20099;-61
2022/12/26 08:51:46;;;;;;;5.57;2.40;;;;;;;;;;4901517;29;20032;-60
2022/12/26 08:54:13;;;;;;;3.85;2.20;;;;;;;;;;4918427;29;20453;-61
2022/12/26 08:56:39;;;;;;;3.55;2.63;;;;;;;;;;4917955;29;20044;-63
2022/12/26 08:59:06;;;;;;;3.60;2.38;;;;;;;;;;4918277;29;20071;-61
2022/12/26 09:01:33;;;;;;;3.85;2.42;;;;;;;;;;4918028;29;20087;-61
2022/12/26 09:04:00;;;;;;;2.35;2.13;;;;;;;;;;4917991;29;20381;-61
2022/12/26 09:06:27;;;;;;;4.03;2.92;;;;;;;;;;4900592;29;20404;-62
2022/12/26 09:08:54;;;;;;;4.10;2.60;;;;;;;;;;4901039;29;20048;-62
2022/12/26 09:11:25;;;;;;;3.75;3.13;;;;;;;;;;4901068;29;20067;-61
2022/12/26 09:13:52;;;;;;;5.30;3.67;;;;;;;;;;4901287;29;20048;-62
2022/12/26 09:16:19;;;;;;;2.63;2.42;;;;;;;;;;4917496;29;20394;-61
2022/12/26 09:18:46;;;;;;;2.67;2.47;;;;;;;;;;4918110;29;20055;-61
2022/12/26 09:21:13;;;;;;;3.38;2.72;;;;;;;;;;4918310;29;20044;-61
2022/12/26 09:23:40;;;;;;;2.90;2.40;;;;;;;;;;4918478;29;20048;-62
2022/12/26 09:26:08;;;;;;;3.10;2.70;;;;;;;;;;4900980;29;20401;-61
2022/12/26 09:28:35;;;;;;;5.13;2.40;;;;;;;;;;4918407;29;20446;-62
2022/12/26 09:31:02;;;;;;;4.00;2.65;;;;;;;;;;4901294;29;20103;-61
2022/12/26 09:33:29;;;;;;;2.55;2.33;;;;;;;;;;4918520;29;20494;-61
2022/12/26 09:35:55;;;;;;;3.55;3.13;;;;;;;;;;4917702;29;20040;-63
2022/12/26 09:38:29;;;;;;;3.17;2.50;;;;;;;;;;4917861;29;20044;-59
2022/12/26 09:41:06;;;;;;;2.85;2.40;;;;;;;;;;4917891;29;20096;-61
2022/12/26 09:43:44;;;;;;;3.50;2.08;;;;;;;;;;4917957;29;20059;-61
2022/12/26 09:46:20;;;;;;;3.28;2.08;;;;;;;;;;4917199;29;20048;-61
2022/12/26 09:48:53;;;;;;;2.58;2.20;;;;;;;;;;4900725;29;20420;-61
2022/12/26 09:51:20;;;;;;;2.63;1.60;;;;;;;;;;4918105;29;20043;-61
2022/12/26 09:53:46;;;;;;;2.35;2.00;;;;;;;;;;4917617;29;20494;-61
2022/12/26 09:56:14;;;;;;;2.50;1.75;;;;;;;;;;4885083;29;20040;-61
2022/12/26 09:59:04;;;;;;;3.60;2.25;;;;;;;;;;4900818;29;20044;-60
2022/12/26 10:01:34;;;;;;;2.67;2.00;;;;;;;;;;4900822;29;20060;-61
2022/12/26 10:04:03;;;;;;;3.20;1.70;;;;;;;;;;4917396;29;20528;-61
2022/12/26 10:06:35;;;;;;;3.67;1.98;;;;;;;;;;4917052;29;20060;-63
2022/12/26 10:09:24;;;;;;;3.53;2.92;;;;;;;;;;4917283;29;20079;-63
2022/12/26 10:12:05;;;;;;;2.85;1.95;;;;;;;;;;4917309;29;20048;-62
2022/12/26 10:14:51;;;;;;;2.17;1.75;;;;;;;;;;4917338;29;20338;-61
2022/12/26 10:17:20;;;;;;;2.25;1.92;;;;;;;;;;4884188;29;20524;-62
2022/12/26 10:19:53;;;;;;;4.38;1.90;;;;;;;;;;4916992;29;20041;-62
2022/12/26 10:22:20;;;;;;;4.15;2.03;;;;;;;;;;4900324;29;20040;-60
2022/12/26 10:24:47;;;;;;;2.60;2.05;;;;;;;;;;4917425;29;20509;-61
2022/12/26 10:27:19;;;;;;;4.55;2.17;;;;;;;;;;4916533;29;20096;-62
2022/12/26 10:29:52;;;;;;;5.10;3.58;;;;;;;;;;4900163;29;20048;-61
2022/12/26 10:32:24;;;;;;;3.27;2.17;;;;;;;;;;4916598;29;20037;-63
2022/12/26 10:34:53;;;;;;;2.80;2.10;;;;;;;;;;4916552;29;20279;-61
2022/12/26 10:37:23;;;;;;;5.90;2.10;;;;;;;;;;4899237;29;20048;-60
2022/12/26 10:40:03;;;;;;;2.08;1.70;;;;;;;;;;4899868;29;20076;-61
2022/12/26 10:42:33;;;;;;;3.03;2.70;;;;;;;;;;4899630;29;20052;-61
2022/12/26 10:45:00;;;;;;;3.55;2.63;;;;;;;;;;4899258;29;20044;-61
2022/12/26 10:47:30;;;;;;;3.08;2.60;;;;;;;;;;4916308;29;20048;-61
2022/12/26 10:50:00;;;;;;;5.38;2.58;;;;;;;;;;4899899;29;20048;-61
2022/12/26 10:52:31;;;;;;;5.38;2.92;;;;;;;;;;4917170;29;20406;-62
2022/12/26 10:54:58;;;;;;;2.72;2.30;;;;;;;;;;4899392;29;20449;-62
2022/12/26 10:57:47;;;;;;;3.50;2.20;;;;;;;;;;4916568;29;20044;-62
2022/12/26 11:00:21;;;;;;;4.07;3.13;;;;;;;;;;4916329;29;20063;-62
2022/12/26 11:02:47;;;;;;;;;;;;;;;;;;4916673;29;20329;-61
2022/12/26 11:05:18;;;;;;;3.00;2.20;;;;;;;;;;4916126;29;19959;-61
2022/12/26 11:08:08;;;;;;;2.28;1.67;;;;;;;;;;4916407;29;20132;-62
2022/12/26 11:10:34;;;;;;;3.75;2.15;;;;;;;;;;4916344;29;20096;-62
2022/12/26 11:13:03;;;;;;;2.92;2.20;;;;;;;;;;4916448;29;20050;-62
2022/12/26 11:15:32;;;;;;;4.25;2.58;;;;;;;;;;4915382;29;20042;-60
2022/12/26 11:18:25;;;;;;;3.97;2.30;;;;;;;;;;4917372;29;20103;-61
2022/12/26 11:20:52;;;;;;;3.38;2.30;;;;;;;;;;4879114;29;20068;-62
2022/12/26 11:23:23;;;;;;;3.33;2.30;;;;;;;;;;4916479;29;20048;-62
2022/12/26 11:25:51;;;;;;;2.85;2.30;;;;;;;;;;4899640;29;20048;-62
2022/12/26 11:28:34;;;;;;;3.60;2.00;;;;;;;;;;4899385;29;20470;-62
2022/12/26 11:31:03;;;;;;;2.50;1.92;;;;;;;;;;4899861;29;20048;-62
2022/12/26 11:33:32;;;;;;;3.83;3.00;;;;;;;;;;4916697;29;20552;-62
2022/12/26 11:36:04;;;;;;;6.90;2.85;;;;;;;;;;4915723;29;20048;-62
2022/12/26 11:38:35;;;;;;;4.80;3.00;;;;;;;;;;4899513;29;20335;-62
2022/12/26 11:41:30;;;;;;;2.53;2.20;;;;;;;;;;4915892;29;20079;-62
2022/12/26 11:44:09;;;;;;;6.40;3.30;;;;;;;;;;4899003;29;20052;-62
2022/12/26 11:46:36;;;;;;;4.30;2.85;;;;;;;;;;4915436;29;20048;-62
2022/12/26 11:49:03;;;;;;;2.67;2.00;;;;;;;;;;4916414;29;20048;-62
2022/12/26 11:51:40;;;;;;;2.95;1.88;;;;;;;;;;4915933;29;20064;-62
2022/12/26 11:54:19;;;;;;;2.45;1.83;;;;;;;;;;4899132;29;20044;-61
2022/12/26 11:56:45;;;;;;;5.63;2.70;;;;;;;;;;4898740;29;20048;-60
2022/12/26 11:59:17;;;;;;;3.42;2.25;;;;;;;;;;4916365;29;20052;-61
2022/12/26 12:01:44;;;;;;;3.35;2.08;;;;;;;;;;4916059;29;20421;-62
2022/12/26 12:04:11;;;;;;;2.67;2.33;;;;;;;;;;4899338;29;20087;-62
2022/12/26 12:06:46;;;;;;;3.00;2.60;;;;;;;;;;4915318;29;20048;-62
2022/12/26 12:09:24;;;;;;;3.25;2.08;;;;;;;;;;4915649;29;20477;-62
2022/12/26 12:12:03;;;;;;;2.35;2.15;;;;;;;;;;4915775;29;20390;-62
2022/12/26 12:14:29;;;;;;;2.50;2.30;;;;;;;;;;4915414;29;20048;-62
2022/12/26 12:16:59;;;;;;;2.55;2.33;;;;;;;;;;4897688;29;20059;-62
2022/12/26 12:19:29;;;;;;;3.78;2.35;;;;;;;;;;4915592;29;20044;-62
2022/12/26 12:22:04;;;;;;;3.33;2.38;;;;;;;;;;4915497;29;20429;-62
2022/12/26 12:24:37;;;;;;;3.28;2.08;;;;;;;;;;4898853;29;20048;-61
2022/12/26 12:27:13;;;;;;;2.40;1.80;;;;;;;;;;4917729;29;20390;-61
2022/12/26 12:29:45;;;;;;;3.22;1.70;;;;;;;;;;4901981;29;20142;-62
2022/12/26 12:32:11;;;;;;;2.95;1.70;;;;;;;;;;4901842;29;20477;-62
2022/12/26 12:34:51;;;;;;;2.40;1.55;;;;;;;;;;4918803;29;20043;-61
2022/12/26 12:37:27;;;;;;;2.40;1.58;;;;;;;;;;4901504;29;20044;-62
2022/12/26 12:40:13;;;;;;;4.88;1.70;;;;;;;;;;4918786;29;20517;-62
2022/12/26 12:42:43;;;;;;;3.63;1.83;;;;;;;;;;4918627;29;20043;-62
2022/12/26 12:45:27;;;;;;;2.78;1.63;;;;;;;;;;4918663;29;20044;-62
2022/12/26 12:48:06;;;;;;;4.97;1.65;;;;;;;;;;4918402;29;20048;-62
2022/12/26 12:50:53;;;;;;;1.83;1.35;;;;;;;;;;4918436;29;20485;-62
2022/12/26 12:53:28;;;;;;;3.15;1.50;;;;;;;;;;4901756;29;20059;-62
2022/12/26 12:56:13;;;;;;;3.70;1.33;;;;;;;;;;4900898;29;20048;-62
2022/12/26 12:58:39;;;;;;;1.75;1.42;;;;;;;;;;4901668;29;20055;-62
2022/12/26 13:01:11;;;;;;;4.05;1.40;;;;;;;;;;4901481;29;20052;-61
2022/12/26 13:03:53;;;;;;;2.95;1.55;;;;;;;;;;4901280;29;20417;-62
2022/12/26 13:06:22;;;;;;;2.15;1.40;;;;;;;;;;4917959;29;20041;-61
2022/12/26 13:08:51;;;;;;;1.65;1.33;;;;;;;;;;4917996;29;20044;-61
2022/12/26 13:11:36;;;;;;;3.65;2.20;;;;;;;;;;4918217;29;20055;-62
2022/12/26 13:14:10;;;;;;;8.20;3.97;;;;;;;;;;4901276;29;20059;-62
2022/12/26 13:16:43;;;;;;;3.47;2.28;;;;;;;;;;4917672;29;20054;-62
2022/12/26 13:19:18;;;;;;;3.88;2.10;;;;;;;;;;4922061;23;20104;-62
2022/12/26 13:21:46;;;;;;;5.03;2.13;;;;;;;;;;4938334;29;20073;-62
2022/12/26 13:24:24;;;;;;;2.53;1.92;;;;;;;;;;4938052;29;20404;-62
2022/12/26 13:27:05;;;;;;;3.05;1.83;;;;;;;;;;4937108;29;20122;-62
2022/12/26 13:29:42;;;;;;;1.70;1.35;;;;;;;;;;4937226;29;20040;-62
2022/12/26 13:32:15;;;;;;;2.63;1.95;;;;;;;;;;4936932;29;20039;-63
2022/12/26 13:34:42;;;;;;;1.73;1.40;;;;;;;;;;4937115;29;20055;-61
2022/12/26 13:37:28;;;;;;;2.40;1.45;;;;;;;;;;4918599;29;20130;-62
2022/12/26 13:39:55;;;;;;;4.15;2.25;;;;;;;;;;4937868;29;20039;-62
2022/12/26 13:45:30;;;;;;;1.50;1.40;;;;;;;;;;4936478;29;20048;-63
2022/12/26 13:47:56;;;;;;;2.50;1.30;;;;;;;;;;4937009;29;20047;-61
2022/12/26 13:50:42;;;;;;;1.88;1.40;;;;;;;;;;4937250;29;20044;-62
2022/12/26 13:53:25;;;;;;;4.20;1.70;;;;;;;;;;4936902;29;20067;-62
2022/12/26 13:55:56;;;;;;;2.97;1.52;;;;;;;;;;4936116;29;20403;-61
2022/12/26 13:58:28;;;;;;;4.40;3.45;;;;;;;;;;4936303;29;20044;-61
2022/12/26 14:01:01;;;;;;;3.00;2.25;;;;;;;;;;4936409;29;20040;-61
2022/12/26 14:03:38;;;;;;;3.58;2.97;;;;;;;;;;4936442;29;20048;-62
2022/12/26 14:06:28;;;;;;;2.63;1.70;;;;;;;;;;4936143;29;20055;-62
2022/12/26 14:09:01;;;;;;;2.33;2.10;;;;;;;;;;4932072;29;20460;-61
2022/12/26 14:11:33;;;;;;;2.75;1.35;;;;;;;;;;4937602;29;20054;-61
2022/12/26 14:14:04;;;;;;;1.77;1.60;;;;;;;;;;4919509;29;20058;-62
2022/12/26 14:16:40;;;;;;;2.58;1.70;;;;;;;;;;4935522;29;20043;-61
2022/12/26 14:19:09;;;;;;;6.18;1.60;;;;;;;;;;4935887;29;20527;-61
2022/12/26 14:21:42;;;;;;;8.23;4.82;;;;;;;;;;4936134;29;20461;-61
2022/12/26 14:24:11;;;;;;;5.10;2.13;;;;;;;;;;4935798;29;20059;-62
2022/12/26 14:26:50;;;;;;;5.97;3.95;;;;;;;;;;4935107;29;20074;-60
2022/12/26 14:29:49;;;;;;;6.55;3.47;;;;;;;;;;4936190;29;20058;-61
2022/12/26 14:32:34;;;;;;;4.32;1.65;;;;;;;;;;4908046;29;20083;-62
2022/12/26 14:35:19;;;;;;;8.02;4.60;;;;;;;;;;4918439;29;20047;-62
2022/12/26 14:37:51;;;;;;;4.80;2.60;;;;;;;;;;4935697;29;20095;-61
2022/12/26 14:40:33;;;;;;;5.15;2.92;;;;;;;;;;4935891;29;20050;-61
2022/12/26 14:43:12;;;;;;;4.70;2.95;;;;;;;;;;4935635;29;20047;-62
2022/12/26 14:45:42;;;;;;;5.88;3.03;;;;;;;;;;4934956;29;20059;-60
2022/12/26 14:48:15;;;;;;;2.95;2.10;;;;;;;;;;4918129;29;20055;-61
2022/12/26 14:50:44;;;;;;;3.60;2.55;;;;;;;;;;4935325;29;20050;-61
2022/12/26 14:53:23;;;;;;;3.47;1.45;;;;;;;;;;4935172;29;20044;-60
2022/12/26 14:56:09;;;;;;;3.65;2.72;;;;;;;;;;4917541;29;20039;-61
2022/12/26 14:58:35;;;;;;;4.00;1.90;;;;;;;;;;4935337;29;20040;-61
2022/12/26 15:01:08;;;;;;;3.95;1.52;;;;;;;;;;4935217;29;20039;-61
2022/12/26 15:03:49;;;;;;;2.83;2.10;;;;;;;;;;4935331;29;20123;-65
2022/12/26 15:06:16;;;;;;;3.17;1.80;;;;;;;;;;4934604;29;20496;-61
2022/12/26 15:08:42;;;;;;;2.78;1.80;;;;;;;;;;4934779;29;20048;-62
2022/12/26 15:11:21;;;;;;;3.17;1.58;;;;;;;;;;4934983;29;20040;-62
2022/12/26 15:13:56;;;;;;;4.30;2.08;;;;;;;;;;4935503;29;20053;-62
2022/12/26 15:16:32;;;;;;;4.60;1.75;;;;;;;;;;4934650;29;20047;-62
2022/12/26 15:19:01;;;;;;;2.13;1.73;;;;;;;;;;4934856;29;20044;-61
2022/12/26 15:21:36;;;;;;;4.20;2.05;;;;;;;;;;4934969;29;20047;-62
2022/12/26 15:24:02;;;;;;;5.00;2.65;;;;;;;;;;4934880;29;20052;-61
2022/12/26 15:26:31;;;;;;;4.05;2.58;;;;;;;;;;4934586;29;20403;-61
2022/12/26 15:29:16;;;;;;;2.78;1.85;;;;;;;;;;4934752;29;20168;-62
2022/12/26 15:32:06;;;;;;;3.63;3.13;;;;;;;;;;4935073;29;20052;-60
2022/12/26 15:34:44;;;;;;;2.13;1.45;;;;;;;;;;4935081;29;20044;-62
2022/12/26 15:37:37;;;;;;;2.60;1.50;;;;;;;;;;4901807;29;20051;-62
2022/12/26 15:40:11;;;;;;;3.42;1.88;;;;;;;;;;4935422;29;20489;-61
2022/12/26 15:42:42;;;;;;;2.47;1.48;;;;;;;;;;4918572;29;20411;-61
2022/12/26 15:45:27;;;;;;;3.38;1.35;;;;;;;;;;4934573;29;20044;-61
2022/12/26 15:48:00;;;;;;;2.80;1.30;;;;;;;;;;4917581;29;20052;-62
2022/12/26 15:50:41;;;;;;;2.47;1.60;;;;;;;;;;4917809;29;20048;-61
2022/12/26 15:53:12;;;;;;;1.73;1.50;;;;;;;;;;4934559;29;20106;-62
2022/12/26 15:55:39;;;;;;;3.80;1.60;;;;;;;;;;4934318;29;20035;-62
2022/12/26 15:58:24;;;;;;;2.53;1.27;;;;;;;;;;4934719;29;20044;-61
2022/12/26 16:00:51;;;;;;;2.42;1.20;;;;;;;;;;4936157;29;20051;-62
2022/12/26 16:03:41;;;;;;;2.85;1.50;;;;;;;;;;4938638;29;20054;-63
2022/12/26 16:06:07;;;;;;;3.00;1.48;;;;;;;;;;4937962;29;20437;-63
2022/12/26 16:08:52;;;;;;;3.15;1.45;;;;;;;;;;4938346;29;20161;-62
2022/12/26 16:11:20;;;;;;;2.08;1.10;;;;;;;;;;4938607;29;20048;-62
2022/12/26 16:13:47;;;;;;;2.00;1.00;;;;;;;;;;4938339;29;20044;-62
2022/12/26 16:16:22;;;;;;;1.75;1.17;;;;;;;;;;4920942;29;20051;-61
2022/12/26 16:18:48;;;;;;;3.25;1.20;;;;;;;;;;4938215;29;20138;-61
2022/12/26 16:24:02;;;;;;;2.45;1.02;;;;;;;;;;4937996;29;20055;-61
2022/12/26 16:26:29;;;;;;;2.00;1.20;;;;;;;;;;4920399;29;20085;-61
2022/12/26 16:28:57;;;;;;;1.40;0.90;;;;;;;;;;4920499;29;20472;-61
2022/12/26 16:31:25;;;;;;;1.73;1.17;;;;;;;;;;4937958;29;20047;-62
2022/12/26 16:33:53;;;;;;;1.42;1.30;;;;;;;;;;4938439;29;20070;-63
2022/12/26 16:36:21;;;;;;;3.67;1.50;;;;;;;;;;4904812;29;20508;-60
2022/12/26 16:38:48;;;;;;;1.20;1.02;;;;;;;;;;4938082;29;20050;-61
2022/12/26 16:41:24;;;;;;;0.77;0.75;;;;;;;;;;4938072;29;20048;-61
2022/12/26 16:43:55;;;;;;;2.15;1.20;;;;;;;;;;4937856;29;20052;-61
2022/12/26 16:46:23;;;;;;;2.42;0.80;;;;;;;;;;4919788;29;20059;-61
2022/12/26 16:48:54;;;;;;;1.45;0.90;;;;;;;;;;4937566;29;20071;-60
2022/12/26 16:51:33;;;;;;;1.17;1.00;;;;;;;;;;4937522;29;20043;-61
2022/12/26 16:54:14;;;;;;;1.00;0.90;;;;;;;;;;4937451;29;20043;-61
2022/12/26 16:56:41;;;;;;;2.10;1.20;;;;;;;;;;4936689;29;20048;-61
2022/12/26 16:59:18;;;;;;;2.25;1.20;;;;;;;;;;4937481;29;20575;-61
2022/12/26 17:01:53;;;;;;;1.95;1.00;;;;;;;;;;4937398;29;20068;-61
2022/12/26 17:04:21;;;;;;;1.02;0.93;;;;;;;;;;4920425;29;20291;-61
2022/12/26 17:06:52;;;;;;;0.75;0.70;;;;;;;;;;4936715;29;20066;-61
2022/12/26 17:09:19;;;;;;;1.35;0.73;;;;;;;;;;4920188;29;20047;-61
2022/12/26 17:11:54;;;;;;;2.25;0.90;;;;;;;;;;4937431;29;20051;-61
2022/12/26 17:14:25;;;;;;;1.55;0.82;;;;;;;;;;4920545;29;20087;-61
2022/12/26 17:16:56;;;;;;;1.20;0.60;;;;;;;;;;4936811;29;20411;-60
2022/12/26 17:19:25;;;;;;;3.40;0.90;;;;;;;;;;4936805;29;20055;-61